createdAt,value
2022-09-12T00:00:02.317Z,20.9
2022-09-12T00:05:02.464Z,20.9
2022-09-12T00:10:02.534Z,20.9
2022-09-12T00:15:01.685Z,20.9
2022-09-12T00:20:01.823Z,20.9
2022-09-12T00:25:02.003Z,20.9
2022-09-12T00:30:02.226Z,20.9
2022-09-12T00:35:02.295Z,20.9
2022-09-12T00:40:02.474Z,20.9
2022-09-12T00:45:02.486Z,20.9
2022-09-12T00:50:02.512Z,20.9
2022-09-12T00:55:01.643Z,20.9
2022-09-12T01:00:01.780Z,20.9
2022-09-12T01:05:01.982Z,20.9
2022-09-12T01:10:02.147Z,20.9
2022-09-12T01:15:02.309Z,20.9
2022-09-12T01:20:02.450Z,20.9
2022-09-12T01:25:02.552Z,20.9
2022-09-12T01:30:01.648Z,20.9
2022-09-12T01:35:01.846Z,20.9
2022-09-12T01:40:02.041Z,20.9
2022-09-12T01:45:01.962Z,20.9
2022-09-12T01:50:02.031Z,20.9
2022-09-12T01:55:03.733Z,20.9
2022-09-12T02:00:02.340Z,20.9
2022-09-12T02:05:02.401Z,20.9
2022-09-12T02:10:02.531Z,20.9
2022-09-12T02:15:01.679Z,20.9
2022-09-12T02:20:01.902Z,20.9
2022-09-12T02:25:01.977Z,20.9
2022-09-12T02:30:02.416Z,20.9
2022-09-12T02:35:02.523Z,20.9
2022-09-12T02:40:02.800Z,20.9
2022-09-12T02:45:03.537Z,20.9
2022-09-12T02:50:01.677Z,20.9
2022-09-12T02:55:03.411Z,20.9
2022-09-12T03:00:03.515Z,20.9
2022-09-12T03:05:03.159Z,20.9
2022-09-12T03:10:02.581Z,20.9
2022-09-12T03:15:03.143Z,20.9
2022-09-12T03:20:02.773Z,20.9
2022-09-12T03:25:02.092Z,20.9
2022-09-12T03:30:01.958Z,20.9
2022-09-12T03:35:03.314Z,20.9
2022-09-12T03:40:02.207Z,20.9
2022-09-12T03:45:02.351Z,20.9
2022-09-12T03:50:02.598Z,20.9
2022-09-12T03:55:02.469Z,20.9
2022-09-12T04:00:02.391Z,20.9
2022-09-12T04:05:02.838Z,20.9
2022-09-12T04:10:02.198Z,20.9
2022-09-12T04:15:02.536Z,20.9
2022-09-12T04:20:02.881Z,20.9
2022-09-12T04:25:01.673Z,20.9
2022-09-12T04:30:02.572Z,20.9
2022-09-12T04:35:02.497Z,20.9
2022-09-12T04:40:02.697Z,20.9
2022-09-12T04:45:01.330Z,20.9
2022-09-12T04:50:02.496Z,20.9
2022-09-12T04:55:01.601Z,20.9
2022-09-12T05:00:05.208Z,20.9
2022-09-12T05:05:02.777Z,20.9
2022-09-12T05:10:02.943Z,20.9
2022-09-12T05:15:02.458Z,20.9
2022-09-12T05:20:02.498Z,20.9
2022-09-12T05:25:03.278Z,20.9
2022-09-12T05:30:01.688Z,20.9
2022-09-12T05:35:02.711Z,20.9
2022-09-12T05:40:02.952Z,20.9
2022-09-12T05:45:02.223Z,20.9
2022-09-12T05:50:02.234Z,20.9
2022-09-12T05:55:02.414Z,20.9
2022-09-12T06:00:02.604Z,20.9
2022-09-12T06:05:02.499Z,20.9
2022-09-12T06:10:02.749Z,11.3
2022-09-12T06:15:02.886Z,11.5
2022-09-12T06:20:02.222Z,11.7
2022-09-12T06:25:02.513Z,12
2022-09-12T06:30:02.571Z,12.2
2022-09-12T06:35:03.425Z,12.5
2022-09-12T06:40:02.816Z,12.9
2022-09-12T06:45:02.853Z,13.3
2022-09-12T06:50:02.229Z,13.5
2022-09-12T06:55:02.392Z,14
2022-09-12T07:00:02.559Z,14.3
2022-09-12T07:05:02.503Z,14.6
2022-09-12T07:10:02.528Z,14.8
2022-09-12T07:15:02.903Z,15.3
2022-09-12T07:20:02.213Z,15.6
2022-09-12T07:25:02.258Z,16
2022-09-12T07:30:03.335Z,16.4
2022-09-12T07:35:03.276Z,16.7
2022-09-12T07:40:02.452Z,16.9
2022-09-12T07:45:02.766Z,17.2
2022-09-12T07:50:01.968Z,17.4
2022-09-12T07:55:02.233Z,17.5
2022-09-12T08:00:02.451Z,17.8
2022-09-12T08:05:03.195Z,18.1
2022-09-12T08:10:03.379Z,18.5
2022-09-12T08:15:02.527Z,18.8
2022-09-12T08:20:01.851Z,19.1
2022-09-12T08:25:02.009Z,19.5
2022-09-12T08:30:02.225Z,19.7
2022-09-12T08:35:03.106Z,19.9
2022-09-12T08:40:03.578Z,20.2
2022-09-12T08:45:02.689Z,20.5
2022-09-12T08:50:01.862Z,20.7
2022-09-12T08:55:02.009Z,20.7
2022-09-12T09:00:02.394Z,21.1
2022-09-12T09:05:03.230Z,21.1
2022-09-12T09:10:03.230Z,21.2
2022-09-12T09:15:03.559Z,21.4
2022-09-12T09:20:01.850Z,21.5
2022-09-12T09:25:02.091Z,21.7
2022-09-12T09:30:02.510Z,22
2022-09-12T09:35:03.267Z,21.8
2022-09-12T09:40:03.486Z,22.1
2022-09-12T09:45:02.891Z,22.2
2022-09-12T09:50:02.249Z,22.4
2022-09-12T09:55:02.280Z,22.4
2022-09-12T10:00:02.512Z,22.4
2022-09-12T10:05:03.373Z,22.4
2022-09-12T10:10:02.727Z,22.5
2022-09-12T10:15:02.855Z,22.6
2022-09-12T10:20:21.329Z,22.5
2022-09-12T10:25:02.193Z,22.4
2022-09-12T10:30:02.907Z,22.5
2022-09-12T10:35:03.335Z,22.6
2022-09-12T10:40:02.960Z,22.6
2022-09-12T10:45:02.733Z,22.9
2022-09-12T10:50:02.579Z,22.9
2022-09-12T10:55:02.657Z,23
2022-09-12T11:00:01.746Z,23.1
2022-09-12T11:05:02.887Z,23.2
2022-09-12T11:10:02.918Z,23.2
2022-09-12T11:15:03.172Z,23.3
2022-09-12T11:20:02.543Z,23.4
2022-09-12T11:25:02.632Z,23.3
2022-09-12T11:30:01.973Z,23.1
2022-09-12T11:35:02.640Z,23.1
2022-09-12T11:40:02.941Z,23.2
2022-09-12T11:45:03.285Z,23.2
2022-09-12T11:50:02.585Z,23
2022-09-12T11:55:02.738Z,22.9
2022-09-12T12:00:01.747Z,22.9
2022-09-12T12:05:02.745Z,22.9
2022-09-12T12:10:02.932Z,22.9
2022-09-12T12:15:03.144Z,22.9
2022-09-12T12:20:06.632Z,22.9
2022-09-12T12:25:02.569Z,22.9
2022-09-12T12:30:02.130Z,22.9
2022-09-12T12:35:02.660Z,22.9
2022-09-12T12:40:02.931Z,22.9
2022-09-12T12:45:02.980Z,22.9
2022-09-12T12:50:02.121Z,22.9
2022-09-12T12:55:02.284Z,22.9
2022-09-12T13:00:02.524Z,22.9
2022-09-12T13:05:03.340Z,22.9
2022-09-12T13:10:02.525Z,22.9
2022-09-12T13:15:03.102Z,22.9
2022-09-12T13:20:24.022Z,22.9
2022-09-12T13:25:02.163Z,22.9
2022-09-12T13:30:03.149Z,22.9
2022-09-12T13:35:03.471Z,22.9
2022-09-12T13:40:02.559Z,22.9
2022-09-12T13:45:02.714Z,22.9
2022-09-12T13:50:02.037Z,22.9
2022-09-12T13:55:02.142Z,22.9
2022-09-12T14:00:02.361Z,22.9
2022-09-12T14:05:03.511Z,22.9
2022-09-12T14:10:02.589Z,22.9
2022-09-12T14:15:02.821Z,22.9
2022-09-12T14:20:02.000Z,22.9
2022-09-12T14:25:02.154Z,22.9
2022-09-12T14:30:02.644Z,22.9
2022-09-12T14:35:03.188Z,22.9
2022-09-12T14:40:03.435Z,22.9
2022-09-12T14:45:02.610Z,22.9
2022-09-12T14:50:02.723Z,22.9
2022-09-12T14:55:01.713Z,22.9
2022-09-12T15:00:02.454Z,22.9
2022-09-12T15:05:02.824Z,22.9
2022-09-12T15:10:02.958Z,22.9
2022-09-12T15:15:03.290Z,22.9
2022-09-12T15:20:02.739Z,22.9
2022-09-12T15:25:01.718Z,22.9
2022-09-12T15:30:02.240Z,22.9
2022-09-12T15:35:02.740Z,22.9
2022-09-12T15:40:03.036Z,22.9
2022-09-12T15:45:13.273Z,22.9
2022-09-12T15:50:02.529Z,22.9
2022-09-12T15:55:03.183Z,22.9
2022-09-12T16:00:01.686Z,22.9
2022-09-12T16:05:02.653Z,22.9
2022-09-12T16:10:02.845Z,22.9
2022-09-12T16:15:03.549Z,22.9
2022-09-12T16:20:02.574Z,22.9
2022-09-12T16:25:02.571Z,22.9
2022-09-12T16:30:01.683Z,22.9
2022-09-12T16:35:02.568Z,22.9
2022-09-12T16:40:02.826Z,22.9
2022-09-12T16:45:03.014Z,22.9
2022-09-12T16:50:02.353Z,22.9
2022-09-12T16:55:01.655Z,22.9
2022-09-12T17:00:01.839Z,22.9
2022-09-12T17:05:02.871Z,22.9
2022-09-12T17:10:02.815Z,22.9
2022-09-12T17:15:03.158Z,22.9
2022-09-12T17:20:02.473Z,22.9
2022-09-12T17:25:02.551Z,22.9
2022-09-12T17:30:01.888Z,22.9
2022-09-12T17:35:02.636Z,22.9
2022-09-12T17:40:02.965Z,22.9
2022-09-12T17:45:03.103Z,22.9
2022-09-12T17:50:27.619Z,22.9
2022-09-12T17:55:02.640Z,22.9
2022-09-12T18:00:02.301Z,22.9
2022-09-12T18:05:03.099Z,22.9
2022-09-12T18:10:02.904Z,22.9
2022-09-12T18:15:02.642Z,22.9
2022-09-12T18:20:02.004Z,22.9
2022-09-12T18:25:02.138Z,22.9
2022-09-12T18:30:20.374Z,22.9
2022-09-12T18:35:03.127Z,22.9
2022-09-12T18:40:03.488Z,22.9
2022-09-12T18:45:02.776Z,22.9
2022-09-12T18:50:01.850Z,22.9
2022-09-12T18:55:02.007Z,22.9
2022-09-12T19:00:03.112Z,22.9
2022-09-12T19:05:03.583Z,22.9
2022-09-12T19:10:03.759Z,22.9
2022-09-12T19:15:03.458Z,22.9
2022-09-12T19:20:01.760Z,22.9
2022-09-12T19:25:02.283Z,22.9
2022-09-12T19:30:02.496Z,22.9
2022-09-12T19:35:03.374Z,22.9
2022-09-12T19:40:02.534Z,22.9
2022-09-12T19:45:02.975Z,22.9
2022-09-12T19:50:02.295Z,22.9
2022-09-12T19:55:02.273Z,22.9
2022-09-12T20:00:02.753Z,22.9
2022-09-12T20:05:03.435Z,22.9
2022-09-12T20:10:02.845Z,22.9
2022-09-12T20:15:03.254Z,22.9
2022-09-12T20:20:02.455Z,22.9
2022-09-12T20:25:02.643Z,22.9
2022-09-12T20:30:01.694Z,22.9
2022-09-12T20:35:02.909Z,22.9
2022-09-12T20:40:03.105Z,22.9
2022-09-12T20:45:03.108Z,22.9
2022-09-12T20:50:02.842Z,22.9
2022-09-12T20:55:02.499Z,22.9
2022-09-12T21:00:02.859Z,22.9
2022-09-12T21:05:02.721Z,22.9
2022-09-12T21:10:02.803Z,22.9
2022-09-12T21:15:02.862Z,22.9
2022-09-12T21:20:02.065Z,22.9
2022-09-12T21:25:02.036Z,22.9
2022-09-12T21:30:02.616Z,22.9
2022-09-12T21:35:03.186Z,22.9
2022-09-12T21:40:03.488Z,22.9
2022-09-12T21:45:02.689Z,22.9
2022-09-12T21:50:01.889Z,22.9
2022-09-12T21:55:01.904Z,22.9
2022-09-12T22:00:02.445Z,22.9
2022-09-12T22:05:02.153Z,22.9
2022-09-12T22:10:02.598Z,22.9
2022-09-12T22:15:12.983Z,22.9
2022-09-12T22:20:02.441Z,22.9
2022-09-12T22:25:02.418Z,22.9
2022-09-12T22:30:02.617Z,22.9
2022-09-12T22:35:01.706Z,22.9
2022-09-12T22:40:01.944Z,22.9
2022-09-12T22:45:02.195Z,22.9
2022-09-12T22:50:02.324Z,22.9
2022-09-12T22:55:02.894Z,22.9
2022-09-12T23:00:03.175Z,22.9
2022-09-12T23:05:03.087Z,22.9
2022-09-12T23:10:02.403Z,22.9
2022-09-12T23:15:02.126Z,22.9
2022-09-12T23:20:02.298Z,22.9
2022-09-12T23:25:02.307Z,22.9
2022-09-12T23:30:02.464Z,22.9
2022-09-12T23:35:02.538Z,22.9
2022-09-12T23:40:01.840Z,22.9
2022-09-12T23:45:01.802Z,22.9
2022-09-12T23:50:02.375Z,22.9
2022-09-12T23:55:02.498Z,22.9
